Terminal Aerodrome Forecast
Issued by NWS Wilmington, OH

Current Version | Previous Version | Graphics & Text | Print | Product List | Glossary On
Versions: 1 2 3 4 5 6 7 8 9 10 11 12 13 14 15 16 17 18 19 20 21
000
FTUS41 KILN 151700 RRA
TAFCMH
TAF
KCMH 151742Z 1518/1618 14008KT P6SM FEW035 BKN200
     FM160000 13006KT P6SM BKN025 OVC200
     FM160300 14008KT P6SM -RA SCT015 OVC060
     FM160700 17010KT P6SM VCSH SCT015 OVC035
     FM160900 18011KT P6SM VCSH BKN015 OVC025
     FM161400 20013KT 4SM -SHRA BR OVC012
      TEMPO 1614/1616 BKN009=

USA.gov is the U.S. government's official web portal to all federal, state and local government web resources and services.